Ayer, Massachusetts
Current Conditions -  °F | °C
As of 4:52 PM on Saturday 25 Oct 2014 (Local Time) from KFIT Reporting Station
Clear Clear  
Wind Chill: 17°   Ceiling: Unl
Heat Index: 17°   Visibility: 10mi
Dew Point:   Wind: 10mph
Humidity: 46%   Direction: 260°W
Pressure: 29.6"   Gusts: NA
Location:  42.56°N, 71.58°W
Report Text: KFIT 252052Z AUTO 26009KT 10SM CLR 17/06 A2960 RMK AO2 SLP025 T01720056 56018
Loading
Personal Weather Stations






























Interactive Weather Map
Tropical Storm Tracking
New forecast layout! Learn more

10-Day Weather Forecast

Advertisements
Track Severe Weather on mobile